sensor_id;sensor_type;location;lat;lon;timestamp;pressure;altitude;pressure_sealevel;temperature;humidity
73143;BME280;61343;53.694;9.988;2022-10-23T00:00:33;101307.22;;;12.53;99.68
73143;BME280;61343;53.694;9.988;2022-10-23T00:02:59;101310.75;;;12.47;99.61
73143;BME280;61343;53.694;9.988;2022-10-23T00:05:26;101310.75;;;12.47;99.61
73143;BME280;61343;53.694;9.988;2022-10-23T00:07:53;101307.47;;;12.45;99.74
73143;BME280;61343;53.694;9.988;2022-10-23T00:10:20;101305.38;;;12.47;100.00
73143;BME280;61343;53.694;9.988;2022-10-23T00:12:46;101306.63;;;12.44;99.74
73143;BME280;61343;53.694;9.988;2022-10-23T00:15:12;101310.16;;;12.45;99.23
73143;BME280;61343;53.694;9.988;2022-10-23T00:17:38;101302.91;;;12.52;98.83
73143;BME280;61343;53.694;9.988;2022-10-23T00:20:04;101312.22;;;12.43;99.39
73143;BME280;61343;53.694;9.988;2022-10-23T00:22:30;101318.38;;;12.43;99.06
73143;BME280;61343;53.694;9.988;2022-10-23T00:24:55;101314.91;;;12.43;99.02
73143;BME280;61343;53.694;9.988;2022-10-23T00:27:21;101313.44;;;12.40;99.22
73143;BME280;61343;53.694;9.988;2022-10-23T00:29:46;101312.84;;;12.38;99.41
73143;BME280;61343;53.694;9.988;2022-10-23T00:32:11;101313.69;;;12.32;99.58
73143;BME280;61343;53.694;9.988;2022-10-23T00:34:37;101310.19;;;12.31;99.81
73143;BME280;61343;53.694;9.988;2022-10-23T00:37:02;101299.88;;;12.28;99.56
73143;BME280;61343;53.694;9.988;2022-10-23T00:39:27;101301.53;;;12.29;99.91
73143;BME280;61343;53.694;9.988;2022-10-23T00:41:52;101300.50;;;12.30;99.62
73143;BME280;61343;53.694;9.988;2022-10-23T00:46:46;101303.81;;;12.26;99.56
73143;BME280;61343;53.694;9.988;2022-10-23T00:49:12;101307.91;;;12.28;99.89
73143;BME280;61343;53.694;9.988;2022-10-23T00:51:44;101314.75;;;12.24;99.86
73143;BME280;61343;53.694;9.988;2022-10-23T00:54:11;101320.72;;;12.26;99.66
73143;BME280;61343;53.694;9.988;2022-10-23T00:56:39;101327.34;;;12.24;98.97
73143;BME280;61343;53.694;9.988;2022-10-23T00:59:05;101321.38;;;12.22;100.00
73143;BME280;61343;53.694;9.988;2022-10-23T01:01:31;101315.78;;;12.23;99.82
73143;BME280;61343;53.694;9.988;2022-10-23T01:03:56;101321.56;;;12.27;99.56
73143;BME280;61343;53.694;9.988;2022-10-23T01:06:27;101318.25;;;12.25;100.00
73143;BME280;61343;53.694;9.988;2022-10-23T01:09:07;101324.00;;;12.28;100.00
73143;BME280;61343;53.694;9.988;2022-10-23T01:11:41;101318.47;;;12.23;100.00
73143;BME280;61343;53.694;9.988;2022-10-23T01:14:22;101313.69;;;12.25;100.00
73143;BME280;61343;53.694;9.988;2022-10-23T01:19:43;101309.38;;;12.24;100.00
73143;BME280;61343;53.694;9.988;2022-10-23T01:24:59;101297.19;;;12.28;100.00
73143;BME280;61343;53.694;9.988;2022-10-23T01:27:32;101295.56;;;12.27;100.00
73143;BME280;61343;53.694;9.988;2022-10-23T01:30:10;101292.25;;;12.25;100.00
73143;BME280;61343;53.694;9.988;2022-10-23T01:32:50;101298.25;;;12.21;100.00
73143;BME280;61343;53.694;9.988;2022-10-23T01:35:21;101298.44;;;12.19;100.00
73143;BME280;61343;53.694;9.988;2022-10-23T01:38:00;101294.13;;;12.18;100.00
73143;BME280;61343;53.694;9.988;2022-10-23T01:40:35;101302.59;;;12.15;100.00
73143;BME280;61343;53.694;9.988;2022-10-23T01:43:09;101300.94;;;12.14;100.00
73143;BME280;61343;53.694;9.988;2022-10-23T01:45:43;101304.47;;;12.15;100.00
73143;BME280;61343;53.694;9.988;2022-10-23T01:48:13;101294.34;;;12.17;100.00
73143;BME280;61343;53.694;9.988;2022-10-23T01:50:41;101302.19;;;12.12;100.00
73143;BME280;61343;53.694;9.988;2022-10-23T01:53:06;101303.03;;;12.12;100.00
73143;BME280;61343;53.694;9.988;2022-10-23T01:55:32;101306.31;;;12.14;99.64
73143;BME280;61343;53.694;9.988;2022-10-23T01:57:59;101300.53;;;12.11;99.52
73143;BME280;61343;53.694;9.988;2022-10-23T02:00:26;101291.69;;;12.10;99.42
73143;BME280;61343;53.694;9.988;2022-10-23T02:02:53;101296.84;;;12.12;99.04
73143;BME280;61343;53.694;9.988;2022-10-23T02:05:27;101281.16;;;12.09;98.83
73143;BME280;61343;53.694;9.988;2022-10-23T02:07:53;101276.03;;;12.07;98.75
73143;BME280;61343;53.694;9.988;2022-10-23T02:10:20;101275.38;;;12.05;98.82
73143;BME280;61343;53.694;9.988;2022-10-23T02:12:57;101268.41;;;12.04;98.66
73143;BME280;61343;53.694;9.988;2022-10-23T02:15:32;101284.91;;;12.01;98.51
73143;BME280;61343;53.694;9.988;2022-10-23T02:20:36;101279.50;;;12.14;97.44
73143;BME280;61343;53.694;9.988;2022-10-23T02:23:21;101272.09;;;12.03;97.17
73143;BME280;61343;53.694;9.988;2022-10-23T02:25:59;101278.72;;;12.01;96.83
73143;BME280;61343;53.694;9.988;2022-10-23T02:28:32;101278.91;;;11.99;96.64
73143;BME280;61343;53.694;9.988;2022-10-23T02:31:00;101268.41;;;11.91;96.77
73143;BME280;61343;53.694;9.988;2022-10-23T02:33:27;101276.66;;;11.96;96.50
73143;BME280;61343;53.694;9.988;2022-10-23T02:35:53;101269.84;;;11.94;95.91
73143;BME280;61343;53.694;9.988;2022-10-23T02:38:29;101271.72;;;11.93;96.00
73143;BME280;61343;53.694;9.988;2022-10-23T02:40:57;101277.91;;;11.87;95.78
73143;BME280;61343;53.694;9.988;2022-10-23T02:43:36;101287.19;;;11.78;96.13
73143;BME280;61343;53.694;9.988;2022-10-23T02:46:15;101285.75;;;11.82;96.43
73143;BME280;61343;53.694;9.988;2022-10-23T02:48:50;101283.28;;;11.74;98.62
73143;BME280;61343;53.694;9.988;2022-10-23T02:51:21;101283.28;;;11.74;99.88
73143;BME280;61343;53.694;9.988;2022-10-23T02:54:07;101288.19;;;11.64;100.00
73143;BME280;61343;53.694;9.988;2022-10-23T03:02:36;101280.81;;;11.66;100.00
73143;BME280;61343;53.694;9.988;2022-10-23T03:05:05;101281.81;;;11.65;100.00
73143;BME280;61343;53.694;9.988;2022-10-23T03:07:33;101280.81;;;11.66;99.83
73143;BME280;61343;53.694;9.988;2022-10-23T03:09:58;101285.53;;;11.64;99.25
73143;BME280;61343;53.694;9.988;2022-10-23T03:12:23;101284.91;;;11.62;98.97
73143;BME280;61343;53.694;9.988;2022-10-23T03:14:49;101275.22;;;11.61;99.12
73143;BME280;61343;53.694;9.988;2022-10-23T03:17:14;101277.72;;;11.62;99.14
73143;BME280;61343;53.694;9.988;2022-10-23T03:19:39;101272.53;;;11.61;98.84
73143;BME280;61343;53.694;9.988;2022-10-23T03:22:04;101275.84;;;11.63;98.74
73143;BME280;61343;53.694;9.988;2022-10-23T03:24:30;101268.44;;;11.58;98.35
73143;BME280;61343;53.694;9.988;2022-10-23T03:26:55;101279.75;;;11.60;98.00
73143;BME280;61343;53.694;9.988;2022-10-23T03:29:20;101275.63;;;11.58;97.70
73143;BME280;61343;53.694;9.988;2022-10-23T03:31:45;101272.75;;;11.59;97.30
73143;BME280;61343;53.694;9.988;2022-10-23T03:34:11;101279.97;;;11.59;97.68
73143;BME280;61343;53.694;9.988;2022-10-23T03:36:37;101277.09;;;11.54;97.82
73143;BME280;61343;53.694;9.988;2022-10-23T03:39:03;101270.69;;;11.55;97.38
73143;BME280;61343;53.694;9.988;2022-10-23T03:41:29;101279.13;;;11.52;96.79
73143;BME280;61343;53.694;9.988;2022-10-23T03:43:54;101284.91;;;11.49;97.21
73143;BME280;61343;53.694;9.988;2022-10-23T03:46:20;101267.22;;;11.48;97.13
73143;BME280;61343;53.694;9.988;2022-10-23T03:48:45;101271.50;;;11.49;97.43
73143;BME280;61343;53.694;9.988;2022-10-23T03:51:10;101260.63;;;11.50;96.81
73143;BME280;61343;53.694;9.988;2022-10-23T03:53:36;101262.03;;;11.53;96.84
73143;BME280;61343;53.694;9.988;2022-10-23T03:56:01;101261.44;;;11.51;95.77
73143;BME280;61343;53.694;9.988;2022-10-23T03:58:26;101269.66;;;11.43;96.03
73143;BME280;61343;53.694;9.988;2022-10-23T04:00:52;101270.06;;;11.40;95.31
73143;BME280;61343;53.694;9.988;2022-10-23T04:03:17;101271.75;;;11.28;95.83
73143;BME280;61343;53.694;9.988;2022-10-23T04:05:42;101278.72;;;11.22;95.90
73143;BME280;61343;53.694;9.988;2022-10-23T04:08:08;101264.69;;;11.13;96.54
73143;BME280;61343;53.694;9.988;2022-10-23T04:10:33;101265.94;;;11.17;97.06
73143;BME280;61343;53.694;9.988;2022-10-23T04:12:58;101272.53;;;11.15;97.31
73143;BME280;61343;53.694;9.988;2022-10-23T04:15:24;101269.22;;;11.13;97.39
73143;BME280;61343;53.694;9.988;2022-10-23T04:17:49;101269.25;;;11.06;98.81
73143;BME280;61343;53.694;9.988;2022-10-23T04:20:14;101263.47;;;11.09;98.82
73143;BME280;61343;53.694;9.988;2022-10-23T04:22:40;101264.91;;;11.05;98.09
73143;BME280;61343;53.694;9.988;2022-10-23T04:25:05;101266.31;;;11.01;98.29
73143;BME280;61343;53.694;9.988;2022-10-23T04:27:31;101262.22;;;11.05;98.28
73143;BME280;61343;53.694;9.988;2022-10-23T04:29:56;101257.91;;;11.11;98.22
73143;BME280;61343;53.694;9.988;2022-10-23T04:32:21;101256.47;;;11.08;98.41
73143;BME280;61343;53.694;9.988;2022-10-23T04:34:46;101258.94;;;11.03;98.06
73143;BME280;61343;53.694;9.988;2022-10-23T04:37:11;101255.44;;;11.09;98.27
73143;BME280;61343;53.694;9.988;2022-10-23T04:39:37;101248.44;;;11.15;98.14
73143;BME280;61343;53.694;9.988;2022-10-23T04:42:02;101251.34;;;11.20;97.97
73143;BME280;61343;53.694;9.988;2022-10-23T04:44:27;101239.16;;;11.11;97.19
73143;BME280;61343;53.694;9.988;2022-10-23T04:46:53;101246.59;;;11.09;97.57
73143;BME280;61343;53.694;9.988;2022-10-23T04:49:18;101243.28;;;11.00;97.95
73143;BME280;61343;53.694;9.988;2022-10-23T04:51:43;101238.94;;;10.93;98.79
73143;BME280;61343;53.694;9.988;2022-10-23T04:54:08;101244.28;;;10.93;98.78
73143;BME280;61343;53.694;9.988;2022-10-23T04:56:34;101237.50;;;10.90;98.84
73143;BME280;61343;53.694;9.988;2022-10-23T04:59:00;101240.38;;;10.95;98.32
73143;BME280;61343;53.694;9.988;2022-10-23T05:01:25;101235.88;;;11.02;97.99
73143;BME280;61343;53.694;9.988;2022-10-23T05:03:51;101234.84;;;11.03;97.60
73143;BME280;61343;53.694;9.988;2022-10-23T05:06:18;101236.28;;;11.06;97.40
73143;BME280;61343;53.694;9.988;2022-10-23T05:08:43;101233.81;;;11.04;97.31
73143;BME280;61343;53.694;9.988;2022-10-23T05:11:08;101230.31;;;10.97;97.30
73143;BME280;61343;53.694;9.988;2022-10-23T05:13:34;101243.69;;;10.97;97.73
73143;BME280;61343;53.694;9.988;2022-10-23T05:15:59;101240.38;;;10.95;97.85
73143;BME280;61343;53.694;9.988;2022-10-23T05:18:39;101238.34;;;10.97;97.29
73143;BME280;61343;53.694;9.988;2022-10-23T05:21:14;101243.69;;;10.97;97.02
73143;BME280;61343;53.694;9.988;2022-10-23T05:23:44;101238.53;;;10.96;97.19
73143;BME280;61343;53.694;9.988;2022-10-23T05:26:10;101236.66;;;10.90;97.09
73143;BME280;61343;53.694;9.988;2022-10-23T05:28:36;101227.19;;;10.87;97.38
73143;BME280;61343;53.694;9.988;2022-10-23T05:31:02;101232.16;;;10.90;97.15
73143;BME280;61343;53.694;9.988;2022-10-23T05:33:29;101230.94;;;10.86;97.20
73143;BME280;61343;53.694;9.988;2022-10-23T05:35:54;101228.00;;;10.81;97.38
73143;BME280;61343;53.694;9.988;2022-10-23T05:38:20;101232.34;;;10.82;97.29
73143;BME280;61343;53.694;9.988;2022-10-23T05:40:46;101228.41;;;10.78;96.89
73143;BME280;61343;53.694;9.988;2022-10-23T05:43:11;101235.63;;;10.78;96.88
73143;BME280;61343;53.694;9.988;2022-10-23T05:45:36;101225.13;;;10.76;96.97
73143;BME280;61343;53.694;9.988;2022-10-23T05:48:02;101230.88;;;10.73;97.09
73143;BME280;61343;53.694;9.988;2022-10-23T05:50:27;101224.13;;;10.77;96.87
73143;BME280;61343;53.694;9.988;2022-10-23T05:52:52;101223.88;;;10.72;96.61
73143;BME280;61343;53.694;9.988;2022-10-23T05:55:18;101221.44;;;10.77;96.57
73143;BME280;61343;53.694;9.988;2022-10-23T05:57:43;101227.19;;;10.81;96.30
73143;BME280;61343;53.694;9.988;2022-10-23T06:00:09;101223.06;;;10.78;96.40
73143;BME280;61343;53.694;9.988;2022-10-23T06:02:34;101225.13;;;10.76;96.29
73143;BME280;61343;53.694;9.988;2022-10-23T06:05:00;101237.69;;;10.82;95.94
73143;BME280;61343;53.694;9.988;2022-10-23T06:07:26;101245.50;;;10.77;95.34
73143;BME280;61343;53.694;9.988;2022-10-23T06:09:51;101249.41;;;10.68;94.99
73143;BME280;61343;53.694;9.988;2022-10-23T06:12:18;101242.22;;;10.69;94.90
73143;BME280;61343;53.694;9.988;2022-10-23T06:14:43;101231.09;;;10.65;95.42
73143;BME280;61343;53.694;9.988;2022-10-23T06:17:09;101229.22;;;10.66;95.59
73143;BME280;61343;53.694;9.988;2022-10-23T06:19:34;101237.25;;;10.66;95.45
73143;BME280;61343;53.694;9.988;2022-10-23T06:21:59;101244.88;;;10.75;95.56
73143;BME280;61343;53.694;9.988;2022-10-23T06:24:24;101237.91;;;10.74;95.47
73143;BME280;61343;53.694;9.988;2022-10-23T06:26:49;101239.50;;;10.62;94.99
73143;BME280;61343;53.694;9.988;2022-10-23T06:29:15;101244.63;;;10.63;95.65
73143;BME280;61343;53.694;9.988;2022-10-23T06:31:40;101238.47;;;10.63;95.62
73143;BME280;61343;53.694;9.988;2022-10-23T06:34:05;101249.59;;;10.67;95.67
73143;BME280;61343;53.694;9.988;2022-10-23T06:36:31;101247.31;;;10.63;95.36
73143;BME280;61343;53.694;9.988;2022-10-23T06:38:56;101246.88;;;10.60;95.14
73143;BME280;61343;53.694;9.988;2022-10-23T06:41:21;101247.72;;;10.60;95.50
73143;BME280;61343;53.694;9.988;2022-10-23T06:43:48;101246.47;;;10.63;96.12
73143;BME280;61343;53.694;9.988;2022-10-23T06:46:14;101235.78;;;10.63;96.23
73143;BME280;61343;53.694;9.988;2022-10-23T06:48:43;101238.28;;;10.71;96.22
73143;BME280;61343;53.694;9.988;2022-10-23T06:51:11;101237.50;;;10.77;96.54
73143;BME280;61343;53.694;9.988;2022-10-23T06:53:37;101240.38;;;10.82;96.49
73143;BME280;61343;53.694;9.988;2022-10-23T06:56:03;101234.63;;;10.85;96.24
73143;BME280;61343;53.694;9.988;2022-10-23T06:58:29;101236.66;;;10.90;96.04
73143;BME280;61343;53.694;9.988;2022-10-23T07:00:55;101240.41;;;10.89;96.62
73143;BME280;61343;53.694;9.988;2022-10-23T07:03:20;101230.31;;;10.91;96.91
73143;BME280;61343;53.694;9.988;2022-10-23T07:05:45;101232.56;;;10.94;96.78
73143;BME280;61343;53.694;9.988;2022-10-23T07:08:13;101245.34;;;10.92;97.28
73143;BME280;61343;53.694;9.988;2022-10-23T07:10:39;101237.28;;;10.98;97.37
73143;BME280;61343;53.694;9.988;2022-10-23T07:13:10;101232.19;;;11.03;97.17
73143;BME280;61343;53.694;9.988;2022-10-23T07:15:37;101227.84;;;11.09;97.42
73143;BME280;61343;53.694;9.988;2022-10-23T07:18:03;101234.66;;;11.11;97.40
73143;BME280;61343;53.694;9.988;2022-10-23T07:20:28;101235.91;;;11.15;97.84
73143;BME280;61343;53.694;9.988;2022-10-23T07:22:55;101236.69;;;11.16;98.00
73143;BME280;61343;53.694;9.988;2022-10-23T07:25:21;101238.97;;;11.12;98.71
73143;BME280;61343;53.694;9.988;2022-10-23T07:27:47;101246.59;;;11.15;98.68
73143;BME280;61343;53.694;9.988;2022-10-23T07:30:13;101239.59;;;11.14;98.62
73143;BME280;61343;53.694;9.988;2022-10-23T07:32:39;101247.41;;;11.23;98.43
73143;BME280;61343;53.694;9.988;2022-10-23T07:35:05;101245.97;;;11.27;98.73
73143;BME280;61343;53.694;9.988;2022-10-23T07:37:31;101244.97;;;11.28;98.85
73143;BME280;61343;53.694;9.988;2022-10-23T07:39:56;101250.53;;;11.33;99.11
73143;BME280;61343;53.694;9.988;2022-10-23T07:42:21;101249.06;;;11.37;99.08
73143;BME280;61343;53.694;9.988;2022-10-23T07:44:47;101245.13;;;11.46;98.57
73143;BME280;61343;53.694;9.988;2022-10-23T07:47:12;101245.78;;;11.48;99.05
73143;BME280;61343;53.694;9.988;2022-10-23T07:49:37;101242.88;;;11.49;99.36
73143;BME280;61343;53.694;9.988;2022-10-23T07:52:06;101235.88;;;11.61;99.84
73143;BME280;61343;53.694;9.988;2022-10-23T07:54:31;101235.25;;;11.72;99.48
73143;BME280;61343;53.694;9.988;2022-10-23T07:57:00;101236.28;;;11.78;99.39
73143;BME280;61343;53.694;9.988;2022-10-23T07:59:25;101241.84;;;11.77;99.21
73143;BME280;61343;53.694;9.988;2022-10-23T08:01:51;101241.84;;;11.63;99.43
73143;BME280;61343;53.694;9.988;2022-10-23T08:04:19;101240.41;;;11.74;99.65
73143;BME280;61343;53.694;9.988;2022-10-23T08:06:44;101236.25;;;11.85;99.57
73143;BME280;61343;53.694;9.988;2022-10-23T08:09:09;101235.00;;;11.94;99.15
73143;BME280;61343;53.694;9.988;2022-10-23T08:11:34;101229.22;;;12.03;99.25
73143;BME280;61343;53.694;9.988;2022-10-23T08:14:02;101217.22;;;12.12;98.88
73143;BME280;61343;53.694;9.988;2022-10-23T08:16:30;101224.84;;;12.15;98.59
73143;BME280;61343;53.694;9.988;2022-10-23T08:18:55;101218.44;;;12.16;98.48
73143;BME280;61343;53.694;9.988;2022-10-23T08:21:21;101218.41;;;12.23;98.32
73143;BME280;61343;53.694;9.988;2022-10-23T08:23:46;101219.47;;;12.15;98.36
73143;BME280;61343;53.694;9.988;2022-10-23T08:26:12;101225.69;;;12.16;99.23
73143;BME280;61343;53.694;9.988;2022-10-23T08:28:37;101230.19;;;12.22;98.98
73143;BME280;61343;53.694;9.988;2022-10-23T08:33:32;101225.84;;;12.27;98.57
73143;BME280;61343;53.694;9.988;2022-10-23T08:35:58;101216.72;;;12.28;98.09
73143;BME280;61343;53.694;9.988;2022-10-23T08:38:23;101225.34;;;12.37;98.28
73143;BME280;61343;53.694;9.988;2022-10-23T08:40:48;101212.56;;;12.46;98.25
73143;BME280;61343;53.694;9.988;2022-10-23T08:46:07;101213.25;;;12.66;97.78
73143;BME280;61343;53.694;9.988;2022-10-23T08:48:41;101217.34;;;12.75;97.64
73143;BME280;61343;53.694;9.988;2022-10-23T08:51:20;101212.72;;;12.82;97.59
73143;BME280;61343;53.694;9.988;2022-10-23T08:53:53;101217.22;;;12.88;97.51
73143;BME280;61343;53.694;9.988;2022-10-23T08:56:32;101223.81;;;12.92;97.44
73143;BME280;61343;53.694;9.988;2022-10-23T08:59:03;101210.53;;;13.04;97.06
73143;BME280;61343;53.694;9.988;2022-10-23T09:04:02;101207.19;;;13.08;96.64
73143;BME280;61343;53.694;9.988;2022-10-23T09:06:55;101209.44;;;13.11;96.68
73143;BME280;61343;53.694;9.988;2022-10-23T09:12:15;101209.34;;;13.24;96.12
73143;BME280;61343;53.694;9.988;2022-10-23T09:17:30;101190.28;;;13.32;96.04
73143;BME280;61343;53.694;9.988;2022-10-23T09:20:22;101191.63;;;13.41;96.15
73143;BME280;61343;53.694;9.988;2022-10-23T09:22:53;101194.03;;;13.50;96.02
73143;BME280;61343;53.694;9.988;2022-10-23T09:25:24;101192.16;;;13.50;95.52
73143;BME280;61343;53.694;9.988;2022-10-23T09:27:53;101183.00;;;13.58;95.49
73143;BME280;61343;53.694;9.988;2022-10-23T09:32:50;101187.13;;;13.78;95.57
73143;BME280;61343;53.694;9.988;2022-10-23T09:35:24;101184.97;;;13.87;95.12
73143;BME280;61343;53.694;9.988;2022-10-23T09:37:49;101183.00;;;13.94;94.78
73143;BME280;61343;53.694;9.988;2022-10-23T09:40:40;101186.50;;;14.13;95.02
73143;BME280;61343;53.694;9.988;2022-10-23T09:43:14;101188.22;;;14.25;94.36
73143;BME280;61343;53.694;9.988;2022-10-23T09:45:40;101183.31;;;14.22;93.14
73143;BME280;61343;53.694;9.988;2022-10-23T09:48:18;101186.66;;;14.18;92.85
73143;BME280;61343;53.694;9.988;2022-10-23T09:50:50;101194.97;;;14.16;93.13
73143;BME280;61343;53.694;9.988;2022-10-23T09:53:20;101187.47;;;14.18;93.21
73143;BME280;61343;53.694;9.988;2022-10-23T09:55:51;101196.75;;;14.22;93.80
73143;BME280;61343;53.694;9.988;2022-10-23T09:58:54;101191.28;;;14.29;93.32
73143;BME280;61343;53.694;9.988;2022-10-23T10:01:33;101201.97;;;14.35;92.58
73143;BME280;61343;53.694;9.988;2022-10-23T10:04:02;101198.00;;;14.38;92.30
73143;BME280;61343;53.694;9.988;2022-10-23T10:06:31;101185.09;;;14.46;91.85
73143;BME280;61343;53.694;9.988;2022-10-23T10:08:59;101185.16;;;14.40;90.95
73143;BME280;61343;53.694;9.988;2022-10-23T10:12:07;101177.59;;;14.48;91.43
73143;BME280;61343;53.694;9.988;2022-10-23T10:14:39;101180.41;;;14.53;91.79
73143;BME280;61343;53.694;9.988;2022-10-23T10:17:26;101180.41;;;14.53;90.66
73143;BME280;61343;53.694;9.988;2022-10-23T10:22:49;101162.44;;;14.66;91.22
73143;BME280;61343;53.694;9.988;2022-10-23T10:31:25;101153.34;;;14.78;89.99
73143;BME280;61343;53.694;9.988;2022-10-23T10:34:05;101158.47;;;14.80;89.85
73143;BME280;61343;53.694;9.988;2022-10-23T10:45:38;101130.53;;;15.04;89.09
73143;BME280;61343;53.694;9.988;2022-10-23T10:48:28;101124.31;;;15.03;88.43
73143;BME280;61343;53.694;9.988;2022-10-23T10:51:08;101118.72;;;15.05;88.84
73143;BME280;61343;53.694;9.988;2022-10-23T10:56:11;101111.31;;;15.12;87.47
73143;BME280;61343;53.694;9.988;2022-10-23T10:59:00;101109.22;;;15.26;87.51
73143;BME280;61343;53.694;9.988;2022-10-23T11:01:33;101112.84;;;15.31;87.35
73143;BME280;61343;53.694;9.988;2022-10-23T11:04:13;101097.84;;;15.35;87.11
73143;BME280;61343;53.694;9.988;2022-10-23T11:06:44;101102.09;;;15.31;86.10
73143;BME280;61343;53.694;9.988;2022-10-23T11:09:20;101099.25;;;15.38;86.21
73143;BME280;61343;53.694;9.988;2022-10-23T11:11:46;101099.59;;;15.41;86.71
73143;BME280;61343;53.694;9.988;2022-10-23T11:14:21;101090.47;;;15.42;86.59
73143;BME280;61343;53.694;9.988;2022-10-23T11:16:52;101093.41;;;15.52;87.08
73143;BME280;61343;53.694;9.988;2022-10-23T11:19:26;101088.69;;;15.59;87.22
73143;BME280;61343;53.694;9.988;2022-10-23T11:27:56;101079.63;;;15.77;85.63
73143;BME280;61343;53.694;9.988;2022-10-23T11:33:12;101077.97;;;15.88;86.09
73143;BME280;61343;53.694;9.988;2022-10-23T11:38:32;101058.41;;;15.81;84.72
73143;BME280;61343;53.694;9.988;2022-10-23T11:41:04;101059.09;;;15.88;85.59
73143;BME280;61343;53.694;9.988;2022-10-23T11:43:55;101051.56;;;15.90;84.86
73143;BME280;61343;53.694;9.988;2022-10-23T11:48:55;101043.66;;;16.00;84.19
73143;BME280;61343;53.694;9.988;2022-10-23T11:51:37;101035.81;;;15.98;83.34
73143;BME280;61343;53.694;9.988;2022-10-23T11:54:23;101037.78;;;16.03;83.67
73143;BME280;61343;53.694;9.988;2022-10-23T11:59:35;101023.16;;;16.15;82.69
73143;BME280;61343;53.694;9.988;2022-10-23T12:02:39;101028.91;;;16.19;82.79
73143;BME280;61343;53.694;9.988;2022-10-23T12:05:26;101016.31;;;16.25;82.42
73143;BME280;61343;53.694;9.988;2022-10-23T12:07:56;101009.78;;;16.37;82.27
73143;BME280;61343;53.694;9.988;2022-10-23T12:10:28;101006.50;;;16.35;81.14
73143;BME280;61343;53.694;9.988;2022-10-23T12:13:00;101003.31;;;16.38;81.11
73143;BME280;61343;53.694;9.988;2022-10-23T12:15:26;101000.44;;;16.45;81.25
73143;BME280;61343;53.694;9.988;2022-10-23T12:17:54;101003.53;;;16.53;81.32
73143;BME280;61343;53.694;9.988;2022-10-23T12:20:27;100982.31;;;16.57;80.86
73143;BME280;61343;53.694;9.988;2022-10-23T12:25:40;100981.16;;;16.69;80.11
73143;BME280;61343;53.694;9.988;2022-10-23T12:31:27;100977.91;;;16.67;80.04
73143;BME280;61343;53.694;9.988;2022-10-23T12:34:25;100971.50;;;16.73;79.70
73143;BME280;61343;53.694;9.988;2022-10-23T12:37:07;100971.25;;;16.75;79.70
73143;BME280;61343;53.694;9.988;2022-10-23T12:39:35;100956.03;;;16.69;79.61
73143;BME280;61343;53.694;9.988;2022-10-23T12:42:03;100953.97;;;16.76;79.85
73143;BME280;61343;53.694;9.988;2022-10-23T12:47:00;100945.63;;;16.78;79.69
73143;BME280;61343;53.694;9.988;2022-10-23T12:49:27;100940.72;;;16.74;79.59
73143;BME280;61343;53.694;9.988;2022-10-23T12:52:02;100938.00;;;16.74;80.26
73143;BME280;61343;53.694;9.988;2022-10-23T12:54:32;100932.28;;;16.71;80.56
73143;BME280;61343;53.694;9.988;2022-10-23T12:57:18;100925.00;;;16.71;80.13
73143;BME280;61343;53.694;9.988;2022-10-23T12:59:44;100916.34;;;16.69;79.97
73143;BME280;61343;53.694;9.988;2022-10-23T13:04:48;100904.41;;;16.65;80.17
73143;BME280;61343;53.694;9.988;2022-10-23T13:07:14;100896.38;;;16.70;80.92
73143;BME280;61343;53.694;9.988;2022-10-23T13:09:44;100893.59;;;16.65;80.65
73143;BME280;61343;53.694;9.988;2022-10-23T13:12:24;100882.00;;;16.65;80.66
73143;BME280;61343;53.694;9.988;2022-10-23T13:17:42;100878.22;;;16.66;81.30
73143;BME280;61343;53.694;9.988;2022-10-23T13:20:20;100860.94;;;16.67;81.40
73143;BME280;61343;53.694;9.988;2022-10-23T13:22:48;100853.59;;;16.62;81.36
73143;BME280;61343;53.694;9.988;2022-10-23T13:25:25;100858.44;;;16.60;81.73
73143;BME280;61343;53.694;9.988;2022-10-23T13:28:03;100853.53;;;16.57;81.63
73143;BME280;61343;53.694;9.988;2022-10-23T13:30:35;100857.47;;;16.50;81.78
73143;BME280;61343;53.694;9.988;2022-10-23T13:33:42;100846.66;;;16.50;82.18
73143;BME280;61343;53.694;9.988;2022-10-23T13:41:39;100831.63;;;16.37;82.56
73143;BME280;61343;53.694;9.988;2022-10-23T13:44:04;100826.56;;;16.41;82.88
73143;BME280;61343;53.694;9.988;2022-10-23T13:46:30;100821.97;;;16.41;82.97
73143;BME280;61343;53.694;9.988;2022-10-23T13:48:55;100811.75;;;16.43;82.94
73143;BME280;61343;53.694;9.988;2022-10-23T13:51:23;100806.66;;;16.47;82.85
73143;BME280;61343;53.694;9.988;2022-10-23T13:53:49;100805.56;;;16.48;82.74
73143;BME280;61343;53.694;9.988;2022-10-23T13:56:16;100798.56;;;16.47;83.34
73143;BME280;61343;53.694;9.988;2022-10-23T13:58:42;100804.47;;;16.44;83.64
73143;BME280;61343;53.694;9.988;2022-10-23T14:01:54;100806.91;;;16.45;83.45
73143;BME280;61343;53.694;9.988;2022-10-23T14:04:14;100802.81;;;16.43;83.57
73143;BME280;61343;53.694;9.988;2022-10-23T14:06:40;100795.50;;;16.38;83.61
73143;BME280;61343;53.694;9.988;2022-10-23T14:09:08;100796.28;;;16.39;83.24
73143;BME280;61343;53.694;9.988;2022-10-23T14:11:34;100798.09;;;16.33;83.34
73143;BME280;61343;53.694;9.988;2022-10-23T14:13:59;100801.06;;;16.32;83.70
73143;BME280;61343;53.694;9.988;2022-10-23T14:16:25;100795.34;;;16.28;83.80
73143;BME280;61343;53.694;9.988;2022-10-23T14:18:50;100802.88;;;16.26;83.77
73143;BME280;61343;53.694;9.988;2022-10-23T14:21:18;100809.28;;;16.20;84.06
73143;BME280;61343;53.694;9.988;2022-10-23T14:23:47;100804.94;;;16.19;84.38
73143;BME280;61343;53.694;9.988;2022-10-23T14:26:16;100795.44;;;16.16;84.38
73143;BME280;61343;53.694;9.988;2022-10-23T14:28:42;100781.13;;;16.16;84.50
73143;BME280;61343;53.694;9.988;2022-10-23T14:31:10;100790.28;;;16.15;84.64